Accueil
METAR-TAF:

METAR-TAF

Aéroports :

Aéroport de Barcelone-El Prat

Barcelone, Espagne

latitude: 41-17N, longitude: 002-04E, altitude: 4 m

Observation

Le bulletin a été fait il y a 14 minutes, à 16:30 UTC
Vent 11 kt de sud/sud-ouest
Température 24°C
Humidité 74%
Pression 1019 hPa
Visibilité 10 km ou plus
Quelques nuages à une hauteur de 2000 ft

METAR: LEBL 281630Z 21011KT 9999 FEW020 24/19 Q1019 NOSIG

Heure: 18:44 (16:44 UTC)

Prévision

Le bulletin a été fait il y a 5 heures et 44 minutes, à 11:00 UTC
Prévision valable du 28 à 12 UTC au 29 à 12 UTC
Vent 12 kt de sud/sud-ouest
Visibilité 10 km ou plus
Quelques nuages à une hauteur de 2000 ft
Evoluant progressivement
du 28 à 20 UTC au 28 à 22 UTC
Vent 6 kt de nord/nord-ouest
Evoluant progressivement
du 29 à 01 UTC au 29 à 03 UTC
Vent 10 kt de nord-est

TAF: LEBL 281100Z 2812/2912 20012KT 9999 FEW020 TX26/2812Z TN20/2906Z BECMG 2820/2822 33006KT BECMG 2901/2903 05010KT

Observations et prévisions météorologiques de plus de 4000 aéroports (messages METAR et TAF).

Les stations disponibles sont représentées par des disques jaunes et rouges sur la carte.

Passer la souris dessus pour voir le nom de la station.

Cliquer dessus pour voir les observations et prévisions météorologiques.

Pour changer de carte: cliquez sur les boutons verts avec une croix noire pour zoomer, sur le bouton vert avec un tiret pour effectuer un zoom arrière, ou sur les flèches vertes pour les cartes adjacentes.


METAR-TAF: